createdAt,value
2018-06-01T00:02:57.795Z,28.07
2018-06-01T00:05:25.089Z,28.60
2018-06-01T00:07:52.607Z,29.70
2018-06-01T00:10:19.147Z,31.13
2018-06-01T00:12:46.451Z,33.37
2018-06-01T00:15:12.976Z,32.50
2018-06-01T00:17:39.492Z,32.53
2018-06-01T00:20:06.027Z,33.83
2018-06-01T00:22:32.521Z,32.57
2018-06-01T00:24:59.057Z,35.60
2018-06-01T00:27:25.593Z,34.17
2018-06-01T00:29:52.159Z,34.63
2018-06-01T00:32:19.429Z,35.10
2018-06-01T00:34:45.943Z,33.50
2018-06-01T00:37:13.200Z,35.03
2018-06-01T00:39:40.475Z,32.87
2018-06-01T00:42:07.013Z,33.23
2018-06-01T00:44:34.105Z,33.67
2018-06-01T00:47:00.634Z,34.00
2018-06-01T00:49:27.167Z,32.27
2018-06-01T00:51:53.742Z,32.27
2018-06-01T00:54:20.365Z,32.77
2018-06-01T00:56:46.892Z,31.20
2018-06-01T00:59:14.166Z,33.50
2018-06-01T01:01:40.703Z,29.60
2018-06-01T01:04:07.241Z,29.80
2018-06-01T01:06:34.525Z,30.30
2018-06-01T01:09:01.057Z,32.47
2018-06-01T01:11:27.598Z,32.73
2018-06-01T01:13:54.139Z,30.40
2018-06-01T01:16:20.654Z,33.27
2018-06-01T01:18:47.178Z,35.93
2018-06-01T01:21:13.766Z,33.00
2018-06-01T01:23:40.320Z,33.37
2018-06-01T01:26:06.854Z,32.43
2018-06-01T01:28:33.375Z,37.57
2018-06-01T01:30:59.941Z,31.13
2018-06-01T01:33:26.469Z,34.37
2018-06-01T01:35:53.060Z,39.53
2018-06-01T01:38:19.590Z,32.37
2018-06-01T01:40:54.033Z,30.67
2018-06-01T01:43:20.618Z,31.40
2018-06-01T01:45:47.876Z,33.77
2018-06-01T01:48:15.167Z,33.97
2018-06-01T01:50:41.731Z,30.67
2018-06-01T01:53:08.284Z,28.70
2018-06-01T01:55:34.844Z,32.30
2018-06-01T01:58:01.388Z,29.53
2018-06-01T02:00:27.969Z,30.23
2018-06-01T02:02:54.507Z,34.90
2018-06-01T02:05:21.778Z,31.47
2018-06-01T02:07:48.323Z,32.57
2018-06-01T02:10:14.846Z,30.93
2018-06-01T02:12:41.369Z,35.60
2018-06-01T02:15:07.905Z,29.73
2018-06-01T02:17:34.448Z,30.53
2018-06-01T02:20:00.995Z,30.80
2018-06-01T02:22:27.532Z,32.67
2018-06-01T02:24:54.044Z,32.80
2018-06-01T02:27:20.600Z,32.63
2018-06-01T02:29:47.135Z,31.67
2018-06-01T02:32:13.644Z,33.07
2018-06-01T02:34:40.172Z,30.70
2018-06-01T02:37:06.684Z,34.03
2018-06-01T02:39:33.215Z,38.93
2018-06-01T02:41:59.725Z,34.07
2018-06-01T02:44:27.000Z,35.00
2018-06-01T02:46:53.541Z,35.00
2018-06-01T02:49:20.091Z,30.73
2018-06-01T02:51:46.589Z,40.13
2018-06-01T02:54:13.128Z,31.00
2018-06-01T02:56:39.666Z,31.53
2018-06-01T02:59:06.215Z,31.00
2018-06-01T03:01:32.754Z,31.83
2018-06-01T03:03:59.290Z,30.30
2018-06-01T03:06:34.791Z,30.20
2018-06-01T03:09:01.304Z,33.13
2018-06-01T03:11:27.853Z,29.90
2018-06-01T03:13:54.396Z,28.20
2018-06-01T03:16:20.929Z,28.13
2018-06-01T03:18:47.440Z,30.57
2018-06-01T03:21:13.996Z,28.17
2018-06-01T03:23:40.533Z,29.97
2018-06-01T03:26:07.081Z,32.57
2018-06-01T03:28:33.610Z,30.53
2018-06-01T03:31:00.142Z,27.10
2018-06-01T03:33:26.701Z,26.60
2018-06-01T03:35:53.244Z,31.20
2018-06-01T03:38:20.594Z,29.90
2018-06-01T03:40:47.877Z,30.07
2018-06-01T03:43:14.406Z,29.43
2018-06-01T03:45:40.923Z,33.70
2018-06-01T03:48:08.244Z,34.20
2018-06-01T03:50:34.785Z,31.73
2018-06-01T03:53:01.314Z,34.07
2018-06-01T03:55:27.862Z,35.03
2018-06-01T03:57:54.398Z,33.30
2018-06-01T04:00:20.917Z,35.17
2018-06-01T04:02:48.187Z,33.50
2018-06-01T04:05:15.529Z,35.13
2018-06-01T04:07:42.072Z,32.63
2018-06-01T04:10:08.618Z,33.40
2018-06-01T04:12:35.158Z,32.20
2018-06-01T04:15:01.686Z,35.60
2018-06-01T04:17:28.333Z,32.30
2018-06-01T04:19:54.869Z,34.70
2018-06-01T04:22:21.410Z,31.93
2018-06-01T04:24:47.928Z,30.77
2018-06-01T04:27:14.455Z,30.30
2018-06-01T04:29:40.984Z,30.27
2018-06-01T04:32:07.539Z,30.63
2018-06-01T04:34:34.072Z,32.20
2018-06-01T04:37:01.341Z,33.83
2018-06-01T04:39:27.882Z,32.23
2018-06-01T04:41:54.421Z,27.93
2018-06-01T04:44:21.703Z,30.70
2018-06-01T04:46:48.257Z,31.47
2018-06-01T04:49:14.861Z,31.00
2018-06-01T04:51:42.127Z,30.80
2018-06-01T04:54:09.605Z,28.57
2018-06-01T04:56:36.179Z,30.83
2018-06-01T04:59:02.751Z,29.10
2018-06-01T05:01:29.277Z,30.17
2018-06-01T05:03:56.531Z,28.07
2018-06-01T05:06:23.836Z,27.80
2018-06-01T05:08:50.418Z,27.80
2018-06-01T05:11:17.669Z,24.53
2018-06-01T05:13:44.954Z,28.63
2018-06-01T05:16:11.479Z,27.00
2018-06-01T05:18:38.046Z,26.50
2018-06-01T05:21:04.580Z,27.10
2018-06-01T05:23:31.106Z,28.90
2018-06-01T05:25:57.643Z,29.07
2018-06-01T05:28:25.127Z,25.60
2018-06-01T05:30:51.661Z,38.13
2018-06-01T05:33:18.222Z,24.53
2018-06-01T05:35:44.754Z,25.77
2018-06-01T05:38:11.310Z,24.27
2018-06-01T05:40:38.591Z,25.40
2018-06-01T05:43:05.116Z,27.73
2018-06-01T05:45:31.638Z,25.03
2018-06-01T05:47:58.190Z,24.00
2018-06-01T05:50:24.736Z,23.40
2018-06-01T05:52:51.253Z,24.83
2018-06-01T05:55:17.775Z,25.23
2018-06-01T05:57:44.316Z,22.83
2018-06-01T06:00:11.613Z,23.10
2018-06-01T06:02:38.192Z,20.73
2018-06-01T06:05:04.756Z,20.90
2018-06-01T06:07:31.283Z,25.23
2018-06-01T06:09:58.595Z,23.17
2018-06-01T06:12:25.127Z,34.27
2018-06-01T06:14:51.633Z,22.60
2018-06-01T06:17:18.163Z,25.47
2018-06-01T06:19:44.751Z,25.23
2018-06-01T06:22:11.275Z,25.53
2018-06-01T06:24:38.560Z,25.03
2018-06-01T06:27:05.153Z,21.53
2018-06-01T06:29:31.687Z,25.60
2018-06-01T06:31:58.267Z,26.23
2018-06-01T06:34:25.590Z,27.97
2018-06-01T06:36:52.101Z,21.07
2018-06-01T06:39:18.658Z,20.90
2018-06-01T06:41:45.195Z,18.70
2018-06-01T06:44:12.537Z,22.47
2018-06-01T06:46:39.078Z,22.97
2018-06-01T06:49:05.694Z,21.77
2018-06-01T06:51:32.245Z,23.80
2018-06-01T06:53:58.805Z,18.03
2018-06-01T06:56:25.306Z,21.03
2018-06-01T06:58:51.850Z,23.20
2018-06-01T07:01:18.418Z,22.23
2018-06-01T07:03:44.970Z,16.67
2018-06-01T07:06:11.494Z,18.07
2018-06-01T07:08:38.048Z,17.43
2018-06-01T07:11:04.587Z,17.10
2018-06-01T07:13:31.843Z,23.27
2018-06-01T07:15:59.118Z,19.20
2018-06-01T07:18:25.746Z,19.43
2018-06-01T07:20:53.025Z,23.90
2018-06-01T07:23:19.536Z,18.37
2018-06-01T07:25:46.079Z,21.33
2018-06-01T07:28:12.604Z,19.57
2018-06-01T07:30:39.855Z,21.33
2018-06-01T07:33:06.385Z,19.13
2018-06-01T07:35:32.936Z,22.27
2018-06-01T07:37:59.447Z,18.80
2018-06-01T07:40:25.985Z,15.47
2018-06-01T07:42:53.241Z,19.17
2018-06-01T07:45:20.522Z,17.67
2018-06-01T07:47:47.031Z,21.80
2018-06-01T07:50:14.345Z,17.00
2018-06-01T07:52:40.913Z,17.80
2018-06-01T07:55:07.480Z,21.57
2018-06-01T07:57:34.020Z,20.10
2018-06-01T08:00:00.519Z,17.57
2018-06-01T08:02:27.025Z,19.40
2018-06-01T08:04:53.545Z,19.63
2018-06-01T08:07:20.086Z,19.60
2018-06-01T08:09:46.613Z,22.97
2018-06-01T08:12:13.193Z,23.00
2018-06-01T08:14:39.740Z,20.90
2018-06-01T08:17:07.041Z,24.40
2018-06-01T08:19:33.581Z,20.13
2018-06-01T08:22:00.248Z,27.67
2018-06-01T08:24:26.785Z,18.53
2018-06-01T08:26:53.354Z,18.77
2018-06-01T08:29:19.880Z,23.20
2018-06-01T08:31:47.133Z,24.30
2018-06-01T08:34:14.944Z,19.07
2018-06-01T08:36:41.530Z,25.40
2018-06-01T08:39:08.109Z,18.37
2018-06-01T08:41:34.702Z,21.27
2018-06-01T08:44:01.281Z,17.90
2018-06-01T08:46:27.906Z,21.07
2018-06-01T08:48:55.166Z,20.60
2018-06-01T08:51:21.700Z,19.17
2018-06-01T08:53:48.292Z,20.77
2018-06-01T08:56:14.807Z,17.17
2018-06-01T08:58:41.313Z,18.03
2018-06-01T09:01:07.832Z,15.73
2018-06-01T09:03:34.402Z,17.60
2018-06-01T09:06:00.985Z,19.77
2018-06-01T09:08:28.282Z,16.97
2018-06-01T09:10:54.812Z,17.13
2018-06-01T09:13:21.340Z,16.43
2018-06-01T09:15:47.924Z,18.80
2018-06-01T09:18:14.506Z,15.00
2018-06-01T09:20:41.035Z,16.47
2018-06-01T09:23:08.376Z,15.87
2018-06-01T09:25:35.638Z,16.20
2018-06-01T09:28:02.174Z,16.43
2018-06-01T09:30:29.467Z,13.43
2018-06-01T09:32:55.979Z,12.30
2018-06-01T09:35:22.541Z,16.10
2018-06-01T09:37:49.097Z,14.07
2018-06-01T09:40:15.589Z,13.53
2018-06-01T09:42:42.104Z,13.37
2018-06-01T09:45:08.634Z,14.23
2018-06-01T09:47:35.892Z,17.37
2018-06-01T09:50:03.210Z,17.53
2018-06-01T09:52:29.803Z,18.33
2018-06-01T09:54:56.405Z,12.57
2018-06-01T09:57:22.937Z,13.60
2018-06-01T09:59:49.460Z,13.63
2018-06-01T10:02:15.983Z,14.47
2018-06-01T10:04:42.496Z,12.27
2018-06-01T10:07:09.006Z,13.43
2018-06-01T10:09:36.249Z,14.20
2018-06-01T10:12:03.536Z,14.83
2018-06-01T10:14:30.108Z,15.37
2018-06-01T10:16:56.650Z,21.03
2018-06-01T10:19:23.164Z,15.07
2018-06-01T10:21:49.707Z,21.33
2018-06-01T10:24:16.288Z,12.37
2018-06-01T10:26:43.540Z,16.47
2018-06-01T10:29:10.813Z,11.47
2018-06-01T10:31:37.331Z,15.47
2018-06-01T10:34:03.924Z,13.87
2018-06-01T10:36:30.451Z,17.53
2018-06-01T10:38:57.005Z,14.63
2018-06-01T10:41:23.550Z,15.73
2018-06-01T10:43:50.080Z,14.03
2018-06-01T10:46:16.603Z,17.10
2018-06-01T10:48:43.149Z,15.10
2018-06-01T10:51:09.717Z,12.90
2018-06-01T10:53:36.266Z,14.70
2018-06-01T10:56:03.525Z,12.53
2018-06-01T10:58:30.085Z,17.17
2018-06-01T11:00:57.337Z,14.97
2018-06-01T11:03:23.853Z,18.13
2018-06-01T11:05:50.352Z,17.80
2018-06-01T11:08:16.908Z,17.53
2018-06-01T11:10:44.220Z,19.57
2018-06-01T11:13:10.755Z,16.87
2018-06-01T11:15:37.295Z,14.83
2018-06-01T11:18:03.806Z,14.13
2018-06-01T11:20:30.355Z,16.10
2018-06-01T11:22:56.894Z,16.10
2018-06-01T11:25:23.425Z,14.37
2018-06-01T11:27:49.983Z,11.60
2018-06-01T11:30:16.505Z,11.53
2018-06-01T11:32:43.046Z,13.90
2018-06-01T11:35:09.623Z,10.40
2018-06-01T11:37:36.169Z,16.50
2018-06-01T11:40:02.813Z,14.33
2018-06-01T11:42:29.311Z,12.80
2018-06-01T11:44:55.862Z,16.63
2018-06-01T11:47:23.124Z,8.70
2018-06-01T11:49:49.659Z,17.57
2018-06-01T11:52:16.233Z,15.73
2018-06-01T11:54:42.791Z,11.30
2018-06-01T11:57:09.327Z,17.13
2018-06-01T11:59:35.857Z,12.17
2018-06-01T12:02:02.401Z,19.20
2018-06-01T12:04:28.963Z,30.13
2018-06-01T12:06:56.228Z,9.90
2018-06-01T12:09:22.756Z,10.63
2018-06-01T12:11:50.078Z,13.27
2018-06-01T12:14:16.591Z,20.63
2018-06-01T12:16:43.111Z,11.53
2018-06-01T12:19:09.647Z,10.30
2018-06-01T12:21:36.245Z,12.93
2018-06-01T12:24:02.786Z,18.67
2018-06-01T12:26:30.157Z,9.40
2018-06-01T12:28:56.693Z,20.13
2018-06-01T12:31:23.222Z,13.17
2018-06-01T12:33:50.485Z,17.87
2018-06-01T12:36:17.004Z,39.00
2018-06-01T12:38:44.285Z,17.47
2018-06-01T12:41:10.841Z,13.13
2018-06-01T12:43:37.343Z,16.50
2018-06-01T12:46:03.942Z,20.93
2018-06-01T12:48:30.482Z,15.67
2018-06-01T12:50:57.026Z,13.97
2018-06-01T12:53:23.525Z,18.93
2018-06-01T12:55:50.103Z,23.70
2018-06-01T12:58:16.672Z,15.13
2018-06-01T13:00:43.186Z,15.80
2018-06-01T13:03:09.726Z,26.03
2018-06-01T13:05:36.980Z,25.47
2018-06-01T13:08:04.338Z,16.70
2018-06-01T13:10:31.599Z,15.57
2018-06-01T13:12:58.189Z,24.00
2018-06-01T13:15:24.745Z,16.40
2018-06-01T13:17:51.260Z,20.40
2018-06-01T13:20:17.775Z,24.50
2018-06-01T13:22:44.305Z,17.70
2018-06-01T13:25:10.896Z,16.83
2018-06-01T13:27:38.195Z,17.57
2018-06-01T13:30:05.764Z,19.77
2018-06-01T13:32:32.291Z,15.17
2018-06-01T13:34:58.805Z,17.13
2018-06-01T13:37:25.346Z,15.67
2018-06-01T13:39:51.917Z,15.53
2018-06-01T13:42:18.508Z,11.33
2018-06-01T13:44:45.027Z,15.53
2018-06-01T13:47:11.602Z,16.63
2018-06-01T13:49:38.149Z,15.37
2018-06-01T13:52:04.835Z,21.33
2018-06-01T13:54:31.352Z,17.23
2018-06-01T13:56:57.914Z,13.33
2018-06-01T13:59:25.194Z,14.40
2018-06-01T14:01:51.749Z,14.20
2018-06-01T14:04:18.321Z,11.37
2018-06-01T14:06:44.864Z,18.37
2018-06-01T14:09:11.415Z,14.57
2018-06-01T14:11:38.711Z,13.50
2018-06-01T14:14:05.268Z,16.63
2018-06-01T14:16:31.804Z,13.60
2018-06-01T14:18:58.348Z,13.10
2018-06-01T14:21:24.902Z,12.90
2018-06-01T14:23:51.434Z,11.37
2018-06-01T14:26:18.960Z,12.07
2018-06-01T14:28:45.507Z,12.03
2018-06-01T14:31:12.037Z,11.13
2018-06-01T14:33:38.590Z,12.53
2018-06-01T14:36:05.139Z,14.50
2018-06-01T14:38:31.679Z,13.37
2018-06-01T14:40:58.236Z,13.27
2018-06-01T14:43:24.805Z,15.00
2018-06-01T14:45:51.356Z,16.27
2018-06-01T14:48:17.904Z,15.03
2018-06-01T14:50:44.418Z,15.93
2018-06-01T14:53:10.957Z,9.10
2018-06-01T14:55:38.166Z,12.03
2018-06-01T14:58:05.495Z,14.87
2018-06-01T15:00:32.016Z,11.53
2018-06-01T15:02:58.525Z,13.60
2018-06-01T15:05:25.043Z,17.50
2018-06-01T15:07:51.597Z,12.90
2018-06-01T15:10:18.180Z,10.90
2018-06-01T15:12:45.464Z,12.07
2018-06-01T15:15:12.070Z,13.03
2018-06-01T15:17:38.618Z,14.67
2018-06-01T15:20:05.155Z,14.87
2018-06-01T15:22:32.424Z,15.53
2018-06-01T15:24:58.967Z,11.47
2018-06-01T15:27:25.561Z,11.97
2018-06-01T15:29:52.101Z,9.37
2018-06-01T15:32:18.644Z,10.47
2018-06-01T15:34:45.184Z,12.47
2018-06-01T15:37:12.480Z,13.67
2018-06-01T15:39:39.045Z,13.70
2018-06-01T15:42:05.569Z,12.80
2018-06-01T15:44:32.151Z,10.83
2018-06-01T15:46:59.476Z,11.67
2018-06-01T15:49:25.987Z,13.10
2018-06-01T15:51:52.495Z,13.73
2018-06-01T15:54:19.014Z,11.53
2018-06-01T15:56:45.571Z,12.57
2018-06-01T15:59:12.131Z,12.07
2018-06-01T16:01:38.670Z,10.67
2018-06-01T16:04:05.229Z,9.77
2018-06-01T16:06:38.717Z,13.90
2018-06-01T16:09:05.344Z,13.23
2018-06-01T16:11:31.923Z,11.83
2018-06-01T16:13:59.212Z,11.10
2018-06-01T16:16:25.847Z,12.30
2018-06-01T16:18:52.482Z,13.13
2018-06-01T16:21:19.062Z,13.47
2018-06-01T16:23:45.588Z,10.73
2018-06-01T16:26:13.093Z,12.90
2018-06-01T16:28:39.620Z,11.67
2018-06-01T16:31:06.217Z,18.80
2018-06-01T16:33:32.744Z,8.83
2018-06-01T16:35:59.263Z,9.43
2018-06-01T16:38:25.774Z,8.63
2018-06-01T16:40:52.319Z,10.47
2018-06-01T16:43:19.601Z,9.33
2018-06-01T16:45:46.193Z,13.63
2018-06-01T16:48:12.740Z,10.83
2018-06-01T16:50:39.243Z,12.80
2018-06-01T16:53:05.779Z,11.00
2018-06-01T16:55:32.301Z,10.03
2018-06-01T16:57:58.838Z,14.63
2018-06-01T17:00:25.375Z,12.43
2018-06-01T17:02:51.976Z,12.87
2018-06-01T17:05:18.538Z,11.17
2018-06-01T17:07:45.111Z,14.57
2018-06-01T17:10:11.647Z,13.20
2018-06-01T17:12:38.197Z,16.43
2018-06-01T17:15:05.499Z,15.57
2018-06-01T17:17:32.149Z,13.33
2018-06-01T17:19:58.714Z,12.33
2018-06-01T17:22:25.269Z,12.77
2018-06-01T17:24:51.783Z,10.53
2018-06-01T17:27:18.344Z,18.07
2018-06-01T17:29:44.846Z,14.43
2018-06-01T17:32:11.384Z,12.43
2018-06-01T17:34:37.927Z,14.77
2018-06-01T17:37:04.489Z,12.83
2018-06-01T17:39:31.012Z,16.10
2018-06-01T17:41:58.352Z,12.73
2018-06-01T17:44:24.872Z,11.03
2018-06-01T17:46:52.227Z,13.30
2018-06-01T17:49:18.740Z,12.17
2018-06-01T17:51:45.263Z,11.70
2018-06-01T17:54:11.797Z,16.20
2018-06-01T17:56:38.386Z,18.10
2018-06-01T17:59:04.931Z,16.63
2018-06-01T18:01:31.464Z,12.17
2018-06-01T18:03:58.840Z,14.37
2018-06-01T18:06:26.113Z,13.03
2018-06-01T18:08:52.659Z,16.87
2018-06-01T18:11:19.186Z,16.07
2018-06-01T18:13:45.738Z,16.27
2018-06-01T18:16:12.306Z,15.67
2018-06-01T18:18:38.853Z,13.43
2018-06-01T18:21:05.436Z,16.30
2018-06-01T18:23:31.949Z,19.43
2018-06-01T18:25:59.212Z,17.53
2018-06-01T18:28:25.838Z,14.87
2018-06-01T18:30:53.085Z,16.57
2018-06-01T18:33:20.403Z,16.17
2018-06-01T18:35:46.915Z,14.20
2018-06-01T18:38:13.457Z,15.27
2018-06-01T18:40:40.005Z,14.93
2018-06-01T18:43:06.544Z,17.50
2018-06-01T18:45:33.150Z,15.57
2018-06-01T18:47:59.671Z,16.83
2018-06-01T18:50:26.253Z,17.33
2018-06-01T18:52:52.781Z,15.77
2018-06-01T18:55:19.324Z,15.87
2018-06-01T18:57:45.844Z,12.87
2018-06-01T19:00:13.137Z,13.13
2018-06-01T19:02:39.672Z,19.00
2018-06-01T19:05:06.243Z,21.77
2018-06-01T19:07:32.767Z,19.07
2018-06-01T19:09:59.288Z,16.20
2018-06-01T19:12:25.842Z,17.00
2018-06-01T19:14:52.465Z,17.67
2018-06-01T19:17:19.732Z,14.63
2018-06-01T19:19:46.984Z,16.90
2018-06-01T19:22:14.245Z,12.60
2018-06-01T19:24:40.828Z,15.87
2018-06-01T19:27:07.383Z,15.77
2018-06-01T19:29:33.947Z,13.93
2018-06-01T19:32:01.214Z,17.03
2018-06-01T19:34:27.791Z,14.63
2018-06-01T19:36:54.310Z,14.73
2018-06-01T19:39:20.891Z,14.80
2018-06-01T19:41:47.481Z,12.33
2018-06-01T19:44:14.062Z,13.03
2018-06-01T19:46:40.680Z,13.13
2018-06-01T19:49:07.217Z,13.33
2018-06-01T19:51:33.728Z,12.23
2018-06-01T19:54:00.368Z,21.17
2018-06-01T19:56:26.920Z,12.00
2018-06-01T19:58:53.442Z,16.30
2018-06-01T20:01:20.017Z,11.90
2018-06-01T20:03:46.541Z,11.13
2018-06-01T20:06:13.061Z,11.40
2018-06-01T20:08:39.621Z,10.77
2018-06-01T20:11:06.208Z,14.40
2018-06-01T20:13:32.733Z,12.83
2018-06-01T20:15:59.259Z,11.07
2018-06-01T20:18:25.794Z,14.87
2018-06-01T20:20:52.316Z,11.37
2018-06-01T20:23:18.832Z,14.47
2018-06-01T20:25:45.347Z,14.30
2018-06-01T20:28:11.916Z,18.20
2018-06-01T20:30:38.434Z,13.13
2018-06-01T20:33:04.965Z,11.60
2018-06-01T20:35:31.492Z,11.73
2018-06-01T20:37:58.669Z,10.13
2018-06-01T20:40:25.244Z,13.13
2018-06-01T20:42:51.773Z,9.40
2018-06-01T20:45:18.292Z,10.07
2018-06-01T20:47:44.835Z,12.57
2018-06-01T20:50:12.086Z,11.23
2018-06-01T20:52:39.337Z,10.57
2018-06-01T20:55:06.635Z,13.63
2018-06-01T20:57:33.160Z,10.30
2018-06-01T20:59:59.658Z,9.23
2018-06-01T21:02:26.906Z,11.23
2018-06-01T21:04:54.177Z,14.17
2018-06-01T21:07:21.481Z,13.67
2018-06-01T21:09:48.052Z,13.07
2018-06-01T21:12:15.328Z,10.33
2018-06-01T21:14:42.595Z,12.33
2018-06-01T21:17:09.142Z,10.93
2018-06-01T21:19:35.656Z,7.30
2018-06-01T21:22:02.174Z,11.70
2018-06-01T21:24:28.702Z,10.03
2018-06-01T21:26:56.013Z,12.17
2018-06-01T21:29:22.537Z,10.80
2018-06-01T21:31:49.077Z,8.03
2018-06-01T21:34:15.589Z,10.97
2018-06-01T21:36:42.115Z,8.90
2018-06-01T21:39:08.712Z,10.70
2018-06-01T21:41:35.263Z,11.33
2018-06-01T21:44:01.776Z,8.43
2018-06-01T21:46:28.314Z,9.60
2018-06-01T21:48:54.878Z,8.27
2018-06-01T21:51:21.404Z,8.63
2018-06-01T21:53:47.926Z,8.07
2018-06-01T21:56:14.437Z,11.87
2018-06-01T21:58:41.004Z,7.60
2018-06-01T22:01:07.555Z,9.77
2018-06-01T22:03:34.828Z,9.77
2018-06-01T22:06:02.092Z,7.07
2018-06-01T22:08:28.611Z,8.70
2018-06-01T22:10:55.113Z,9.43
2018-06-01T22:13:21.652Z,9.40
2018-06-01T22:15:48.279Z,13.37
2018-06-01T22:18:14.819Z,11.03
2018-06-01T22:20:41.351Z,11.43
2018-06-01T22:23:07.938Z,9.27
2018-06-01T22:25:34.481Z,9.37
2018-06-01T22:28:00.993Z,11.13
2018-06-01T22:30:28.271Z,12.27
2018-06-01T22:32:54.818Z,10.37
2018-06-01T22:35:21.351Z,9.63
2018-06-01T22:37:47.896Z,12.43
2018-06-01T22:40:14.434Z,12.50
2018-06-01T22:42:40.956Z,12.83
2018-06-01T22:45:07.482Z,12.53
2018-06-01T22:47:34.015Z,15.80
2018-06-01T22:50:00.533Z,15.60
2018-06-01T22:52:27.835Z,17.30
2018-06-01T22:54:54.426Z,18.53
2018-06-01T22:57:21.709Z,19.40
2018-06-01T22:59:49.165Z,26.83
2018-06-01T23:02:15.683Z,25.03
2018-06-01T23:04:42.970Z,24.63
2018-06-01T23:07:09.506Z,22.03
2018-06-01T23:09:36.058Z,27.10
2018-06-01T23:12:02.614Z,24.70
2018-06-01T23:14:29.205Z,23.37
2018-06-01T23:16:55.703Z,25.20
2018-06-01T23:19:22.213Z,17.70
2018-06-01T23:21:48.730Z,18.13
2018-06-01T23:24:15.257Z,18.50
2018-06-01T23:26:41.770Z,14.03
2018-06-01T23:29:08.276Z,14.50
2018-06-01T23:31:34.809Z,12.27
2018-06-01T23:34:01.338Z,17.23
2018-06-01T23:36:27.882Z,16.07
2018-06-01T23:38:54.442Z,12.50
2018-06-01T23:41:20.974Z,17.33
2018-06-01T23:43:47.496Z,21.77
2018-06-01T23:46:14.740Z,14.97
2018-06-01T23:48:41.272Z,14.50
2018-06-01T23:51:07.805Z,15.90
2018-06-01T23:53:34.332Z,15.03
2018-06-01T23:56:00.867Z,14.37
2018-06-01T23:58:27.406Z,15.23
